sensor_id;sensor_type;location;lat;lon;timestamp;temperature;humidity
5415;DHT22;2730;51.512;7.504;2023-01-19T00:00:03;1.20;99.90
5415;DHT22;2730;51.512;7.504;2023-01-19T00:02:46;1.20;99.90
5415;DHT22;2730;51.512;7.504;2023-01-19T00:05:13;1.30;99.90
5415;DHT22;2730;51.512;7.504;2023-01-19T00:07:41;1.30;99.90
5415;DHT22;2730;51.512;7.504;2023-01-19T00:10:11;1.40;99.90
5415;DHT22;2730;51.512;7.504;2023-01-19T00:12:38;1.40;99.90
5415;DHT22;2730;51.512;7.504;2023-01-19T00:15:05;1.40;99.90
5415;DHT22;2730;51.512;7.504;2023-01-19T00:17:32;1.30;99.90
5415;DHT22;2730;51.512;7.504;2023-01-19T00:19:59;1.30;99.90
5415;DHT22;2730;51.512;7.504;2023-01-19T00:22:26;1.20;99.90
5415;DHT22;2730;51.512;7.504;2023-01-19T00:24:53;1.20;99.90
5415;DHT22;2730;51.512;7.504;2023-01-19T00:27:21;1.20;99.90
5415;DHT22;2730;51.512;7.504;2023-01-19T00:29:49;1.30;99.90
5415;DHT22;2730;51.512;7.504;2023-01-19T00:32:16;1.30;99.90
5415;DHT22;2730;51.512;7.504;2023-01-19T00:34:44;1.30;99.90
5415;DHT22;2730;51.512;7.504;2023-01-19T00:37:14;1.30;99.90
5415;DHT22;2730;51.512;7.504;2023-01-19T00:39:41;1.30;99.90
5415;DHT22;2730;51.512;7.504;2023-01-19T06:00:48;1.00;99.90
5415;DHT22;2730;51.512;7.504;2023-01-19T06:03:15;1.00;99.90
5415;DHT22;2730;51.512;7.504;2023-01-19T06:05:42;1.10;99.90
5415;DHT22;2730;51.512;7.504;2023-01-19T06:08:09;1.00;99.90
5415;DHT22;2730;51.512;7.504;2023-01-19T06:10:36;1.10;99.90
5415;DHT22;2730;51.512;7.504;2023-01-19T06:13:02;1.10;99.90
5415;DHT22;2730;51.512;7.504;2023-01-19T06:15:29;1.10;99.90
5415;DHT22;2730;51.512;7.504;2023-01-19T06:17:57;1.10;99.90
5415;DHT22;2730;51.512;7.504;2023-01-19T06:20:24;1.00;99.90
5415;DHT22;2730;51.512;7.504;2023-01-19T06:22:51;1.00;99.90
5415;DHT22;2730;51.512;7.504;2023-01-19T06:25:18;0.90;99.90
5415;DHT22;2730;51.512;7.504;2023-01-19T06:27:45;0.90;99.90
5415;DHT22;2730;51.512;7.504;2023-01-19T06:30:12;0.90;99.90
5415;DHT22;2730;51.512;7.504;2023-01-19T06:32:39;0.90;99.90
5415;DHT22;2730;51.512;7.504;2023-01-19T06:35:08;0.90;99.90
5415;DHT22;2730;51.512;7.504;2023-01-19T06:37:35;0.90;99.90
5415;DHT22;2730;51.512;7.504;2023-01-19T06:40:03;1.00;99.90
5415;DHT22;2730;51.512;7.504;2023-01-19T06:42:30;1.00;99.90
5415;DHT22;2730;51.512;7.504;2023-01-19T06:44:57;0.90;99.90
5415;DHT22;2730;51.512;7.504;2023-01-19T06:47:23;1.00;99.90
5415;DHT22;2730;51.512;7.504;2023-01-19T06:49:50;1.00;99.90
5415;DHT22;2730;51.512;7.504;2023-01-19T06:52:18;1.10;99.90
5415;DHT22;2730;51.512;7.504;2023-01-19T06:54:45;1.10;99.90
5415;DHT22;2730;51.512;7.504;2023-01-19T06:57:12;1.10;99.90
5415;DHT22;2730;51.512;7.504;2023-01-19T06:59:40;1.10;99.90
5415;DHT22;2730;51.512;7.504;2023-01-19T07:02:08;1.10;99.90
5415;DHT22;2730;51.512;7.504;2023-01-19T07:04:35;1.10;99.90
5415;DHT22;2730;51.512;7.504;2023-01-19T07:07:02;1.10;99.90
5415;DHT22;2730;51.512;7.504;2023-01-19T07:09:31;1.10;99.90
5415;DHT22;2730;51.512;7.504;2023-01-19T07:11:57;1.10;99.90
5415;DHT22;2730;51.512;7.504;2023-01-19T07:14:24;1.20;99.90
5415;DHT22;2730;51.512;7.504;2023-01-19T07:16:55;1.20;99.90
5415;DHT22;2730;51.512;7.504;2023-01-19T07:19:22;1.20;99.90
5415;DHT22;2730;51.512;7.504;2023-01-19T07:21:49;1.20;99.90
5415;DHT22;2730;51.512;7.504;2023-01-19T07:24:16;1.20;99.90
5415;DHT22;2730;51.512;7.504;2023-01-19T07:26:45;1.20;99.90
5415;DHT22;2730;51.512;7.504;2023-01-19T07:29:11;1.20;99.90
5415;DHT22;2730;51.512;7.504;2023-01-19T07:31:38;1.20;99.90
5415;DHT22;2730;51.512;7.504;2023-01-19T07:34:05;1.20;99.90
5415;DHT22;2730;51.512;7.504;2023-01-19T07:36:32;1.20;99.90
5415;DHT22;2730;51.512;7.504;2023-01-19T07:39:00;1.20;99.90
5415;DHT22;2730;51.512;7.504;2023-01-19T07:41:27;1.20;99.90
5415;DHT22;2730;51.512;7.504;2023-01-19T07:43:55;1.20;99.90
5415;DHT22;2730;51.512;7.504;2023-01-19T07:46:22;1.20;99.90
5415;DHT22;2730;51.512;7.504;2023-01-19T07:48:49;1.20;99.90
5415;DHT22;2730;51.512;7.504;2023-01-19T07:51:15;1.20;99.90
5415;DHT22;2730;51.512;7.504;2023-01-19T07:53:43;1.20;99.90
5415;DHT22;2730;51.512;7.504;2023-01-19T07:56:10;1.30;99.90
5415;DHT22;2730;51.512;7.504;2023-01-19T07:58:38;1.30;99.90
5415;DHT22;2730;51.512;7.504;2023-01-19T08:01:08;1.30;99.90
5415;DHT22;2730;51.512;7.504;2023-01-19T08:03:35;1.30;99.90
5415;DHT22;2730;51.512;7.504;2023-01-19T08:06:03;1.30;99.90
5415;DHT22;2730;51.512;7.504;2023-01-19T08:08:31;1.30;99.90
5415;DHT22;2730;51.512;7.504;2023-01-19T08:10:58;1.30;99.90
5415;DHT22;2730;51.512;7.504;2023-01-19T08:13:25;1.40;99.90
5415;DHT22;2730;51.512;7.504;2023-01-19T08:15:53;1.40;99.90
5415;DHT22;2730;51.512;7.504;2023-01-19T08:18:21;1.40;99.90
5415;DHT22;2730;51.512;7.504;2023-01-19T08:20:48;1.40;99.90
5415;DHT22;2730;51.512;7.504;2023-01-19T08:23:15;1.40;99.90
5415;DHT22;2730;51.512;7.504;2023-01-19T08:25:44;1.50;99.90
5415;DHT22;2730;51.512;7.504;2023-01-19T08:28:12;1.40;99.90
5415;DHT22;2730;51.512;7.504;2023-01-19T08:30:39;1.50;99.90
5415;DHT22;2730;51.512;7.504;2023-01-19T08:33:08;1.50;99.90
5415;DHT22;2730;51.512;7.504;2023-01-19T08:35:37;1.50;99.90
5415;DHT22;2730;51.512;7.504;2023-01-19T08:38:05;1.50;99.90
5415;DHT22;2730;51.512;7.504;2023-01-19T08:40:34;1.60;99.90
5415;DHT22;2730;51.512;7.504;2023-01-19T08:43:02;1.60;99.90
5415;DHT22;2730;51.512;7.504;2023-01-19T08:45:31;1.60;99.90
5415;DHT22;2730;51.512;7.504;2023-01-19T08:47:58;1.60;99.90
5415;DHT22;2730;51.512;7.504;2023-01-19T08:50:25;1.60;99.90
5415;DHT22;2730;51.512;7.504;2023-01-19T08:52:54;1.70;99.90
5415;DHT22;2730;51.512;7.504;2023-01-19T08:55:22;1.80;99.90
5415;DHT22;2730;51.512;7.504;2023-01-19T08:57:50;1.80;99.90
5415;DHT22;2730;51.512;7.504;2023-01-19T09:00:18;1.80;99.90
5415;DHT22;2730;51.512;7.504;2023-01-19T09:02:45;1.80;99.90
5415;DHT22;2730;51.512;7.504;2023-01-19T09:05:12;1.80;99.90
5415;DHT22;2730;51.512;7.504;2023-01-19T09:07:39;1.80;99.90
5415;DHT22;2730;51.512;7.504;2023-01-19T09:10:09;1.90;99.90
5415;DHT22;2730;51.512;7.504;2023-01-19T09:12:36;1.90;99.90
5415;DHT22;2730;51.512;7.504;2023-01-19T09:15:03;1.90;99.90
5415;DHT22;2730;51.512;7.504;2023-01-19T09:17:30;1.90;99.90
5415;DHT22;2730;51.512;7.504;2023-01-19T09:19:57;1.90;99.90
5415;DHT22;2730;51.512;7.504;2023-01-19T09:22:24;1.90;99.90
5415;DHT22;2730;51.512;7.504;2023-01-19T09:24:50;2.10;99.90
5415;DHT22;2730;51.512;7.504;2023-01-19T09:27:19;2.10;99.90
5415;DHT22;2730;51.512;7.504;2023-01-19T09:29:45;2.00;99.90
5415;DHT22;2730;51.512;7.504;2023-01-19T09:32:17;2.10;99.90
5415;DHT22;2730;51.512;7.504;2023-01-19T09:34:44;2.00;99.90
5415;DHT22;2730;51.512;7.504;2023-01-19T09:37:11;1.90;99.90
5415;DHT22;2730;51.512;7.504;2023-01-19T09:39:38;1.80;99.90
5415;DHT22;2730;51.512;7.504;2023-01-19T09:42:18;1.90;99.90
5415;DHT22;2730;51.512;7.504;2023-01-19T09:44:50;2.00;99.90
5415;DHT22;2730;51.512;7.504;2023-01-19T09:47:22;2.00;99.90
5415;DHT22;2730;51.512;7.504;2023-01-19T09:49:53;2.10;99.90
5415;DHT22;2730;51.512;7.504;2023-01-19T09:52:23;2.10;99.90
5415;DHT22;2730;51.512;7.504;2023-01-19T09:54:53;2.10;99.90
5415;DHT22;2730;51.512;7.504;2023-01-19T09:57:21;2.20;99.90
5415;DHT22;2730;51.512;7.504;2023-01-19T09:59:49;2.10;99.90
5415;DHT22;2730;51.512;7.504;2023-01-19T10:02:32;2.20;99.90
5415;DHT22;2730;51.512;7.504;2023-01-19T10:05:02;2.30;99.90
5415;DHT22;2730;51.512;7.504;2023-01-19T10:07:40;2.20;99.90
5415;DHT22;2730;51.512;7.504;2023-01-19T10:10:17;2.20;99.90
5415;DHT22;2730;51.512;7.504;2023-01-19T10:12:54;2.20;99.90
5415;DHT22;2730;51.512;7.504;2023-01-19T10:15:33;2.30;99.90
5415;DHT22;2730;51.512;7.504;2023-01-19T10:18:15;2.40;99.90
5415;DHT22;2730;51.512;7.504;2023-01-19T10:20:45;2.40;99.90
5415;DHT22;2730;51.512;7.504;2023-01-19T10:23:22;2.50;99.90
5415;DHT22;2730;51.512;7.504;2023-01-19T10:25:51;2.40;99.90
5415;DHT22;2730;51.512;7.504;2023-01-19T10:28:23;2.40;99.90
5415;DHT22;2730;51.512;7.504;2023-01-19T10:30:53;2.40;99.90
5415;DHT22;2730;51.512;7.504;2023-01-19T10:33:20;2.40;99.90
5415;DHT22;2730;51.512;7.504;2023-01-19T10:35:47;2.40;99.90
5415;DHT22;2730;51.512;7.504;2023-01-19T10:38:15;2.40;99.90
5415;DHT22;2730;51.512;7.504;2023-01-19T10:40:55;2.40;99.90
5415;DHT22;2730;51.512;7.504;2023-01-19T10:43:37;2.40;99.90
5415;DHT22;2730;51.512;7.504;2023-01-19T10:46:07;2.40;99.90
5415;DHT22;2730;51.512;7.504;2023-01-19T10:48:42;2.40;99.90
5415;DHT22;2730;51.512;7.504;2023-01-19T10:51:09;2.40;99.90
5415;DHT22;2730;51.512;7.504;2023-01-19T10:53:36;2.40;99.90
5415;DHT22;2730;51.512;7.504;2023-01-19T10:56:15;2.40;99.90
5415;DHT22;2730;51.512;7.504;2023-01-19T10:58:43;2.40;99.90
5415;DHT22;2730;51.512;7.504;2023-01-19T11:01:17;2.40;99.90
5415;DHT22;2730;51.512;7.504;2023-01-19T11:03:44;2.30;99.90
5415;DHT22;2730;51.512;7.504;2023-01-19T11:06:20;2.30;99.90
5415;DHT22;2730;51.512;7.504;2023-01-19T11:08:49;2.40;99.90
5415;DHT22;2730;51.512;7.504;2023-01-19T11:11:17;2.40;99.90
5415;DHT22;2730;51.512;7.504;2023-01-19T11:13:44;2.50;99.90
5415;DHT22;2730;51.512;7.504;2023-01-19T11:16:29;2.40;99.90
5415;DHT22;2730;51.512;7.504;2023-01-19T11:18:59;2.50;99.90
5415;DHT22;2730;51.512;7.504;2023-01-19T11:21:30;2.40;99.90
5415;DHT22;2730;51.512;7.504;2023-01-19T11:23:59;2.40;99.90
5415;DHT22;2730;51.512;7.504;2023-01-19T11:26:32;2.40;99.90
5415;DHT22;2730;51.512;7.504;2023-01-19T11:29:01;2.40;99.90
5415;DHT22;2730;51.512;7.504;2023-01-19T11:31:34;2.40;99.90
5415;DHT22;2730;51.512;7.504;2023-01-19T11:34:02;2.40;99.90
5415;DHT22;2730;51.512;7.504;2023-01-19T11:36:31;2.40;99.90
5415;DHT22;2730;51.512;7.504;2023-01-19T11:39:00;2.40;99.90
5415;DHT22;2730;51.512;7.504;2023-01-19T11:41:40;2.60;99.90
5415;DHT22;2730;51.512;7.504;2023-01-19T11:44:13;2.70;99.90
5415;DHT22;2730;51.512;7.504;2023-01-19T11:46:44;2.70;99.90
5415;DHT22;2730;51.512;7.504;2023-01-19T11:49:17;2.70;99.90
5415;DHT22;2730;51.512;7.504;2023-01-19T11:51:49;2.80;99.90
5415;DHT22;2730;51.512;7.504;2023-01-19T11:54:20;2.70;99.90
5415;DHT22;2730;51.512;7.504;2023-01-19T11:56:49;2.80;99.90
5415;DHT22;2730;51.512;7.504;2023-01-19T11:59:17;2.80;99.90
5415;DHT22;2730;51.512;7.504;2023-01-19T12:01:49;2.90;99.90
5415;DHT22;2730;51.512;7.504;2023-01-19T12:04:23;3.00;99.90
5415;DHT22;2730;51.512;7.504;2023-01-19T12:06:54;3.00;99.90
5415;DHT22;2730;51.512;7.504;2023-01-19T12:09:24;3.00;99.90
5415;DHT22;2730;51.512;7.504;2023-01-19T12:11:55;3.10;99.90
5415;DHT22;2730;51.512;7.504;2023-01-19T12:14:25;3.10;99.90
5415;DHT22;2730;51.512;7.504;2023-01-19T12:16:58;3.20;99.90
5415;DHT22;2730;51.512;7.504;2023-01-19T12:19:34;3.30;99.90
5415;DHT22;2730;51.512;7.504;2023-01-19T12:22:05;3.30;99.90
5415;DHT22;2730;51.512;7.504;2023-01-19T12:24:39;3.20;99.90
5415;DHT22;2730;51.512;7.504;2023-01-19T12:27:16;3.30;99.90
5415;DHT22;2730;51.512;7.504;2023-01-19T12:29:47;3.30;99.90
5415;DHT22;2730;51.512;7.504;2023-01-19T12:32:28;3.20;99.90
5415;DHT22;2730;51.512;7.504;2023-01-19T12:34:57;3.20;99.90
5415;DHT22;2730;51.512;7.504;2023-01-19T12:37:32;3.10;99.90
5415;DHT22;2730;51.512;7.504;2023-01-19T12:40:03;3.10;99.90
5415;DHT22;2730;51.512;7.504;2023-01-19T12:42:43;3.00;99.90
5415;DHT22;2730;51.512;7.504;2023-01-19T12:45:13;3.10;99.90
5415;DHT22;2730;51.512;7.504;2023-01-19T12:47:49;3.00;99.90
5415;DHT22;2730;51.512;7.504;2023-01-19T12:50:17;3.10;99.90
5415;DHT22;2730;51.512;7.504;2023-01-19T12:52:48;3.00;99.90
5415;DHT22;2730;51.512;7.504;2023-01-19T12:55:23;3.00;99.90
5415;DHT22;2730;51.512;7.504;2023-01-19T12:57:55;3.00;99.90
5415;DHT22;2730;51.512;7.504;2023-01-19T13:00:32;2.90;99.90
5415;DHT22;2730;51.512;7.504;2023-01-19T13:03:03;2.80;99.90
5415;DHT22;2730;51.512;7.504;2023-01-19T13:05:57;2.80;99.90
5415;DHT22;2730;51.512;7.504;2023-01-19T13:11:19;2.80;99.90
5415;DHT22;2730;51.512;7.504;2023-01-19T13:17:01;2.80;99.90
5415;DHT22;2730;51.512;7.504;2023-01-19T13:19:43;2.90;99.90
5415;DHT22;2730;51.512;7.504;2023-01-19T13:25:13;3.10;99.90
5415;DHT22;2730;51.512;7.504;2023-01-19T13:27:47;3.30;99.90
5415;DHT22;2730;51.512;7.504;2023-01-19T13:30:16;3.50;99.90
5415;DHT22;2730;51.512;7.504;2023-01-19T13:32:44;3.60;99.90
5415;DHT22;2730;51.512;7.504;2023-01-19T13:35:16;3.60;99.90
5415;DHT22;2730;51.512;7.504;2023-01-19T13:37:45;3.50;99.90
5415;DHT22;2730;51.512;7.504;2023-01-19T13:40:17;3.50;99.90
5415;DHT22;2730;51.512;7.504;2023-01-19T13:42:44;3.50;99.90
5415;DHT22;2730;51.512;7.504;2023-01-19T13:45:18;3.50;99.90
5415;DHT22;2730;51.512;7.504;2023-01-19T13:47:47;3.50;99.90
5415;DHT22;2730;51.512;7.504;2023-01-19T13:50:20;3.50;99.90
5415;DHT22;2730;51.512;7.504;2023-01-19T13:52:48;3.70;99.90
5415;DHT22;2730;51.512;7.504;2023-01-19T13:55:18;3.60;99.90
5415;DHT22;2730;51.512;7.504;2023-01-19T13:57:46;3.60;99.90
5415;DHT22;2730;51.512;7.504;2023-01-19T14:00:20;3.60;99.90
5415;DHT22;2730;51.512;7.504;2023-01-19T14:02:56;3.60;99.90
5415;DHT22;2730;51.512;7.504;2023-01-19T14:05:27;3.70;99.90
5415;DHT22;2730;51.512;7.504;2023-01-19T14:08:02;3.50;99.90
5415;DHT22;2730;51.512;7.504;2023-01-19T14:10:30;3.50;99.90
5415;DHT22;2730;51.512;7.504;2023-01-19T14:12:57;3.50;99.90
5415;DHT22;2730;51.512;7.504;2023-01-19T14:15:25;3.30;99.90
5415;DHT22;2730;51.512;7.504;2023-01-19T14:18:17;3.20;99.90
5415;DHT22;2730;51.512;7.504;2023-01-19T14:20:53;3.10;99.90
5415;DHT22;2730;51.512;7.504;2023-01-19T14:23:36;3.20;99.90
5415;DHT22;2730;51.512;7.504;2023-01-19T14:26:04;3.30;99.90
5415;DHT22;2730;51.512;7.504;2023-01-19T14:28:36;3.30;99.90
5415;DHT22;2730;51.512;7.504;2023-01-19T14:31:19;3.30;99.90
5415;DHT22;2730;51.512;7.504;2023-01-19T14:33:48;3.30;99.90
5415;DHT22;2730;51.512;7.504;2023-01-19T14:36:26;3.20;99.90
5415;DHT22;2730;51.512;7.504;2023-01-19T14:38:57;3.20;99.90
5415;DHT22;2730;51.512;7.504;2023-01-19T14:41:26;3.20;99.90
5415;DHT22;2730;51.512;7.504;2023-01-19T14:43:56;3.10;99.90
5415;DHT22;2730;51.512;7.504;2023-01-19T14:46:25;3.10;99.90
5415;DHT22;2730;51.512;7.504;2023-01-19T14:48:55;3.00;99.90
5415;DHT22;2730;51.512;7.504;2023-01-19T14:51:26;3.00;99.90
5415;DHT22;2730;51.512;7.504;2023-01-19T14:53:55;3.10;99.90
5415;DHT22;2730;51.512;7.504;2023-01-19T14:56:24;3.10;99.90
5415;DHT22;2730;51.512;7.504;2023-01-19T14:58:51;3.10;99.90
5415;DHT22;2730;51.512;7.504;2023-01-19T15:01:18;3.10;99.90
5415;DHT22;2730;51.512;7.504;2023-01-19T15:03:45;3.10;99.90
5415;DHT22;2730;51.512;7.504;2023-01-19T15:08:41;3.00;99.90
5415;DHT22;2730;51.512;7.504;2023-01-19T15:11:11;3.00;99.90
5415;DHT22;2730;51.512;7.504;2023-01-19T15:13:43;3.00;99.90
5415;DHT22;2730;51.512;7.504;2023-01-19T15:16:10;3.00;99.90
5415;DHT22;2730;51.512;7.504;2023-01-19T15:18:37;3.10;99.90
5415;DHT22;2730;51.512;7.504;2023-01-19T15:21:04;3.00;99.90
5415;DHT22;2730;51.512;7.504;2023-01-19T15:23:32;3.10;99.90
5415;DHT22;2730;51.512;7.504;2023-01-19T15:26:02;3.00;99.90
5415;DHT22;2730;51.512;7.504;2023-01-19T15:28:29;3.00;99.90
5415;DHT22;2730;51.512;7.504;2023-01-19T15:30:57;3.00;99.90
5415;DHT22;2730;51.512;7.504;2023-01-19T15:33:26;2.90;99.90
5415;DHT22;2730;51.512;7.504;2023-01-19T15:35:55;2.90;99.90
5415;DHT22;2730;51.512;7.504;2023-01-19T15:38:21;2.90;99.90
5415;DHT22;2730;51.512;7.504;2023-01-19T15:40:49;2.90;99.90
5415;DHT22;2730;51.512;7.504;2023-01-19T15:43:17;2.90;99.90
5415;DHT22;2730;51.512;7.504;2023-01-19T15:45:47;2.90;99.90
5415;DHT22;2730;51.512;7.504;2023-01-19T15:48:15;3.00;99.90
5415;DHT22;2730;51.512;7.504;2023-01-19T15:50:44;3.00;99.90
5415;DHT22;2730;51.512;7.504;2023-01-19T15:53:13;2.90;99.90
5415;DHT22;2730;51.512;7.504;2023-01-19T15:55:40;3.00;99.90
5415;DHT22;2730;51.512;7.504;2023-01-19T15:58:07;2.90;99.90
5415;DHT22;2730;51.512;7.504;2023-01-19T16:00:35;2.80;99.90
5415;DHT22;2730;51.512;7.504;2023-01-19T16:03:02;2.60;99.90
5415;DHT22;2730;51.512;7.504;2023-01-19T16:05:29;2.40;99.90
5415;DHT22;2730;51.512;7.504;2023-01-19T16:07:56;2.40;99.90
5415;DHT22;2730;51.512;7.504;2023-01-19T16:10:23;2.20;99.90
5415;DHT22;2730;51.512;7.504;2023-01-19T16:12:50;2.10;99.90
5415;DHT22;2730;51.512;7.504;2023-01-19T16:15:17;2.10;99.90
5415;DHT22;2730;51.512;7.504;2023-01-19T16:17:45;1.90;99.90
5415;DHT22;2730;51.512;7.504;2023-01-19T16:20:12;1.80;99.90
5415;DHT22;2730;51.512;7.504;2023-01-19T16:22:39;1.70;99.90
5415;DHT22;2730;51.512;7.504;2023-01-19T16:25:06;1.60;99.90
5415;DHT22;2730;51.512;7.504;2023-01-19T16:27:33;1.50;99.90
5415;DHT22;2730;51.512;7.504;2023-01-19T16:29:59;1.50;99.90
5415;DHT22;2730;51.512;7.504;2023-01-19T16:32:30;1.50;99.90
5415;DHT22;2730;51.512;7.504;2023-01-19T16:34:58;1.40;99.90
5415;DHT22;2730;51.512;7.504;2023-01-19T16:37:25;1.50;99.90
5415;DHT22;2730;51.512;7.504;2023-01-19T16:39:52;1.40;99.90
5415;DHT22;2730;51.512;7.504;2023-01-19T16:42:19;1.50;99.90
5415;DHT22;2730;51.512;7.504;2023-01-19T16:44:46;1.40;99.90
5415;DHT22;2730;51.512;7.504;2023-01-19T16:47:12;1.40;99.90
5415;DHT22;2730;51.512;7.504;2023-01-19T16:49:39;1.40;99.90
5415;DHT22;2730;51.512;7.504;2023-01-19T16:52:07;1.30;99.90
5415;DHT22;2730;51.512;7.504;2023-01-19T16:54:34;1.30;99.90
5415;DHT22;2730;51.512;7.504;2023-01-19T16:57:01;1.20;99.90
5415;DHT22;2730;51.512;7.504;2023-01-19T16:59:27;1.30;99.90
5415;DHT22;2730;51.512;7.504;2023-01-19T17:01:55;1.30;99.90
5415;DHT22;2730;51.512;7.504;2023-01-19T17:04:22;1.20;99.90
5415;DHT22;2730;51.512;7.504;2023-01-19T17:06:49;1.20;99.90
5415;DHT22;2730;51.512;7.504;2023-01-19T17:09:17;1.30;99.90
5415;DHT22;2730;51.512;7.504;2023-01-19T17:11:44;1.30;99.90
5415;DHT22;2730;51.512;7.504;2023-01-19T17:14:12;1.20;99.90
5415;DHT22;2730;51.512;7.504;2023-01-19T17:16:40;1.30;99.90
5415;DHT22;2730;51.512;7.504;2023-01-19T17:19:09;1.20;99.90
5415;DHT22;2730;51.512;7.504;2023-01-19T17:21:38;1.10;99.90
5415;DHT22;2730;51.512;7.504;2023-01-19T17:24:05;1.10;99.90
5415;DHT22;2730;51.512;7.504;2023-01-19T17:26:33;1.10;99.90
5415;DHT22;2730;51.512;7.504;2023-01-19T17:29:02;1.20;99.90
5415;DHT22;2730;51.512;7.504;2023-01-19T17:31:29;1.30;99.90
5415;DHT22;2730;51.512;7.504;2023-01-19T17:33:57;1.30;99.90
5415;DHT22;2730;51.512;7.504;2023-01-19T17:36:25;1.40;99.90
5415;DHT22;2730;51.512;7.504;2023-01-19T17:38:53;1.50;99.90
5415;DHT22;2730;51.512;7.504;2023-01-19T17:41:37;1.50;99.90
5415;DHT22;2730;51.512;7.504;2023-01-19T17:44:05;1.50;99.90
5415;DHT22;2730;51.512;7.504;2023-01-19T17:46:35;1.50;99.90
5415;DHT22;2730;51.512;7.504;2023-01-19T17:49:03;1.50;99.90
5415;DHT22;2730;51.512;7.504;2023-01-19T17:51:30;1.50;99.90
5415;DHT22;2730;51.512;7.504;2023-01-19T17:53:58;1.50;99.90
5415;DHT22;2730;51.512;7.504;2023-01-19T17:56:27;1.50;99.90
5415;DHT22;2730;51.512;7.504;2023-01-19T17:58:56;1.50;99.90
5415;DHT22;2730;51.512;7.504;2023-01-19T18:01:24;1.50;99.90
5415;DHT22;2730;51.512;7.504;2023-01-19T18:03:52;1.40;99.90
5415;DHT22;2730;51.512;7.504;2023-01-19T18:06:19;1.30;99.90
5415;DHT22;2730;51.512;7.504;2023-01-19T18:08:47;1.30;99.90
5415;DHT22;2730;51.512;7.504;2023-01-19T18:11:17;1.20;99.90
5415;DHT22;2730;51.512;7.504;2023-01-19T18:13:45;1.30;99.90
5415;DHT22;2730;51.512;7.504;2023-01-19T18:16:16;1.30;99.90
5415;DHT22;2730;51.512;7.504;2023-01-19T18:18:43;1.20;99.90
5415;DHT22;2730;51.512;7.504;2023-01-19T18:21:12;1.10;99.90
5415;DHT22;2730;51.512;7.504;2023-01-19T18:23:40;1.00;99.90
5415;DHT22;2730;51.512;7.504;2023-01-19T18:26:09;1.00;99.90
5415;DHT22;2730;51.512;7.504;2023-01-19T18:28:36;1.00;99.90
5415;DHT22;2730;51.512;7.504;2023-01-19T18:31:05;1.00;99.90
5415;DHT22;2730;51.512;7.504;2023-01-19T18:33:34;1.00;99.90
5415;DHT22;2730;51.512;7.504;2023-01-19T18:36:01;0.90;99.90
5415;DHT22;2730;51.512;7.504;2023-01-19T18:38:27;0.90;99.90
5415;DHT22;2730;51.512;7.504;2023-01-19T18:41:02;0.90;99.90
5415;DHT22;2730;51.512;7.504;2023-01-19T18:43:29;1.10;99.90
5415;DHT22;2730;51.512;7.504;2023-01-19T18:45:56;1.20;99.90
5415;DHT22;2730;51.512;7.504;2023-01-19T18:48:23;1.20;99.90
5415;DHT22;2730;51.512;7.504;2023-01-19T18:50:52;1.30;99.90
5415;DHT22;2730;51.512;7.504;2023-01-19T18:53:19;1.20;99.90
5415;DHT22;2730;51.512;7.504;2023-01-19T18:55:50;1.20;99.90
5415;DHT22;2730;51.512;7.504;2023-01-19T18:58:17;1.10;99.90
5415;DHT22;2730;51.512;7.504;2023-01-19T19:00:44;0.90;99.90
5415;DHT22;2730;51.512;7.504;2023-01-19T19:03:10;1.00;99.90
5415;DHT22;2730;51.512;7.504;2023-01-19T19:05:37;0.90;99.90
5415;DHT22;2730;51.512;7.504;2023-01-19T19:08:06;0.80;99.90
5415;DHT22;2730;51.512;7.504;2023-01-19T19:10:33;0.80;99.90
5415;DHT22;2730;51.512;7.504;2023-01-19T19:12:59;0.70;99.90
5415;DHT22;2730;51.512;7.504;2023-01-19T19:15:26;0.70;99.90
5415;DHT22;2730;51.512;7.504;2023-01-19T19:17:53;0.80;99.90
5415;DHT22;2730;51.512;7.504;2023-01-19T19:20:20;1.00;99.90
5415;DHT22;2730;51.512;7.504;2023-01-19T19:22:48;1.10;99.90
5415;DHT22;2730;51.512;7.504;2023-01-19T19:25:17;1.20;99.90
5415;DHT22;2730;51.512;7.504;2023-01-19T19:27:44;1.20;99.90
5415;DHT22;2730;51.512;7.504;2023-01-19T19:30:15;1.20;99.90
5415;DHT22;2730;51.512;7.504;2023-01-19T19:32:42;1.20;99.90
5415;DHT22;2730;51.512;7.504;2023-01-19T19:35:09;1.40;99.90
5415;DHT22;2730;51.512;7.504;2023-01-19T19:37:36;1.40;99.90
5415;DHT22;2730;51.512;7.504;2023-01-19T19:40:04;1.30;99.90
5415;DHT22;2730;51.512;7.504;2023-01-19T19:42:33;1.30;99.90
5415;DHT22;2730;51.512;7.504;2023-01-19T19:45:01;1.20;99.90
5415;DHT22;2730;51.512;7.504;2023-01-19T19:47:28;1.20;99.90
5415;DHT22;2730;51.512;7.504;2023-01-19T19:49:56;1.20;99.90
5415;DHT22;2730;51.512;7.504;2023-01-19T19:52:23;1.30;99.90
5415;DHT22;2730;51.512;7.504;2023-01-19T19:54:52;1.30;99.90
5415;DHT22;2730;51.512;7.504;2023-01-19T19:57:18;1.30;99.90
5415;DHT22;2730;51.512;7.504;2023-01-19T19:59:46;1.30;99.90
5415;DHT22;2730;51.512;7.504;2023-01-19T20:02:13;1.30;99.90
5415;DHT22;2730;51.512;7.504;2023-01-19T20:04:40;1.30;99.90
5415;DHT22;2730;51.512;7.504;2023-01-19T20:07:07;1.30;99.90
5415;DHT22;2730;51.512;7.504;2023-01-19T20:09:35;1.40;99.90
5415;DHT22;2730;51.512;7.504;2023-01-19T20:12:02;1.50;99.90
5415;DHT22;2730;51.512;7.504;2023-01-19T20:14:29;1.50;99.90
5415;DHT22;2730;51.512;7.504;2023-01-19T20:16:57;1.60;99.90
5415;DHT22;2730;51.512;7.504;2023-01-19T20:19:23;1.70;99.90
5415;DHT22;2730;51.512;7.504;2023-01-19T20:21:50;1.80;99.90
5415;DHT22;2730;51.512;7.504;2023-01-19T20:24:19;1.90;99.90
5415;DHT22;2730;51.512;7.504;2023-01-19T20:26:47;1.90;99.90
5415;DHT22;2730;51.512;7.504;2023-01-19T20:29:15;1.90;99.90
5415;DHT22;2730;51.512;7.504;2023-01-19T20:31:44;1.90;99.90
5415;DHT22;2730;51.512;7.504;2023-01-19T20:34:14;2.00;99.90
5415;DHT22;2730;51.512;7.504;2023-01-19T20:36:42;1.90;99.90
5415;DHT22;2730;51.512;7.504;2023-01-19T20:39:14;1.90;99.90
5415;DHT22;2730;51.512;7.504;2023-01-19T20:41:41;1.90;99.90
5415;DHT22;2730;51.512;7.504;2023-01-19T20:44:09;2.00;99.90
5415;DHT22;2730;51.512;7.504;2023-01-19T20:46:36;2.00;99.90
5415;DHT22;2730;51.512;7.504;2023-01-19T20:49:03;1.90;99.90
5415;DHT22;2730;51.512;7.504;2023-01-19T20:51:31;1.90;99.90
5415;DHT22;2730;51.512;7.504;2023-01-19T20:53:59;1.90;99.90
5415;DHT22;2730;51.512;7.504;2023-01-19T20:56:26;1.90;99.90
5415;DHT22;2730;51.512;7.504;2023-01-19T20:58:53;2.00;99.90
5415;DHT22;2730;51.512;7.504;2023-01-19T21:01:21;1.90;99.90
5415;DHT22;2730;51.512;7.504;2023-01-19T21:03:48;2.00;99.90
5415;DHT22;2730;51.512;7.504;2023-01-19T21:06:16;2.00;99.90
5415;DHT22;2730;51.512;7.504;2023-01-19T21:08:44;2.00;99.90
5415;DHT22;2730;51.512;7.504;2023-01-19T21:11:11;2.00;99.90
5415;DHT22;2730;51.512;7.504;2023-01-19T21:13:38;2.00;99.90
5415;DHT22;2730;51.512;7.504;2023-01-19T21:16:06;2.10;99.90
5415;DHT22;2730;51.512;7.504;2023-01-19T21:18:33;2.00;99.90
5415;DHT22;2730;51.512;7.504;2023-01-19T21:21:00;2.10;99.90
5415;DHT22;2730;51.512;7.504;2023-01-19T21:23:27;2.10;99.90
5415;DHT22;2730;51.512;7.504;2023-01-19T21:25:57;2.10;99.90
5415;DHT22;2730;51.512;7.504;2023-01-19T21:28:24;2.10;99.90
5415;DHT22;2730;51.512;7.504;2023-01-19T21:30:52;2.00;99.90
5415;DHT22;2730;51.512;7.504;2023-01-19T21:33:20;1.90;99.90
5415;DHT22;2730;51.512;7.504;2023-01-19T21:35:50;1.90;99.90
5415;DHT22;2730;51.512;7.504;2023-01-19T21:38:17;1.80;99.90
5415;DHT22;2730;51.512;7.504;2023-01-19T21:40:44;1.80;99.90
5415;DHT22;2730;51.512;7.504;2023-01-19T21:43:13;1.70;99.90
5415;DHT22;2730;51.512;7.504;2023-01-19T21:45:40;1.60;99.90
5415;DHT22;2730;51.512;7.504;2023-01-19T21:48:07;1.60;99.90
5415;DHT22;2730;51.512;7.504;2023-01-19T21:50:35;1.40;99.90
5415;DHT22;2730;51.512;7.504;2023-01-19T21:53:02;1.30;99.90
5415;DHT22;2730;51.512;7.504;2023-01-19T21:55:30;1.30;99.90
5415;DHT22;2730;51.512;7.504;2023-01-19T21:57:57;1.40;99.90